OGG weather

Public forecast

Using degrees Fahrenheit for public forecast. Weather courtesy of forecast.io.

Current aviation weather report (METAR) for Kahului Airport

Retrieved 2020/08/14 10:54 UTC (34 minutes ago):

PHOG 141054Z AUTO 07004KT 10SM CLR 25/18 A2996

Aviation forecast (TAF) for Kahului Airport

Retrieved 2020/08/14 06:27 UTC (5 hours ago):

TAF PHOG 140523Z 1406/1506 05014G22KT P6SM FEW030 SCT050 FM140800 06008KT P6SM FEW030 SCT050 FM142000 05015G23KT P6SM FEW035 SCT050 AMD LTD TO VIS AND WIND 1409/1416